Time;durP1;ratioP1;P1;durP2;ratioP2;P2;SDS_P1;SDS_P2;PMS_P1;PMS_P2;Temp;Humidity;BMP_temperature;BMP_pressure;BME280_temperature;BME280_humidity;BME280_pressure;Samples;Min_cycle;Max_cycle;Signal;HPM_P1;HPM_P2
2023/02/13 00:00:28;;;;;;;43.83;20.37;;;;;;;;;;5013594;28;20077;-82
2023/02/13 00:02:54;;;;;;;40.90;19.97;;;;;;;;;;5012511;28;20434;-82
2023/02/13 00:05:19;;;;;;;41.87;19.60;;;;;;;;;;5011612;28;20040;-84
2023/02/13 00:07:45;;;;;;;45.40;19.63;;;;;;;;;;5013199;28;20312;-85
2023/02/13 00:10:11;;;;;;;37.37;18.47;;;;;;;;;;5013606;28;20033;-84
2023/02/13 00:12:36;;;;;;;33.60;17.37;;;;;;;;;;5012068;28;20022;-84
2023/02/13 00:15:04;;;;;;;36.83;16.80;;;;;;;;;;5014455;28;20030;-83
2023/02/13 00:17:31;;;;;;;37.33;17.37;;;;;;;;;;5012534;28;20025;-84
2023/02/13 00:19:56;;;;;;;29.53;14.93;;;;;;;;;;5014153;28;20100;-82
2023/02/13 00:22:23;;;;;;;28.07;13.07;;;;;;;;;;5014496;28;20413;-80
2023/02/13 00:24:48;;;;;;;33.97;15.07;;;;;;;;;;5017526;28;20108;-84
2023/02/13 00:27:14;;;;;;;36.53;15.93;;;;;;;;;;5015686;28;20060;-82
2023/02/13 00:29:39;;;;;;;37.17;17.70;;;;;;;;;;5015722;28;20451;-83
2023/02/13 00:32:05;;;;;;;37.13;17.70;;;;;;;;;;5016749;28;20033;-85
2023/02/13 00:34:30;;;;;;;37.20;17.63;;;;;;;;;;5017020;28;20065;-84
2023/02/13 00:36:56;;;;;;;36.27;16.37;;;;;;;;;;5016375;28;20030;-84
2023/02/13 00:39:21;;;;;;;36.47;17.87;;;;;;;;;;5016164;28;20084;-84
2023/02/13 00:41:47;;;;;;;32.50;17.00;;;;;;;;;;5015483;28;20021;-85
2023/02/13 00:44:12;;;;;;;37.70;18.00;;;;;;;;;;5015842;28;20032;-84
2023/02/13 00:46:38;;;;;;;35.10;17.77;;;;;;;;;;5016459;28;20377;-83
2023/02/13 00:49:04;;;;;;;36.67;18.23;;;;;;;;;;5016121;28;20025;-84
2023/02/13 00:51:30;;;;;;;46.33;18.67;;;;;;;;;;5016197;28;20061;-83
2023/02/13 00:53:56;;;;;;;39.37;18.30;;;;;;;;;;5014806;28;20044;-85
2023/02/13 00:56:22;;;;;;;38.40;19.30;;;;;;;;;;5016499;28;20443;-85
2023/02/13 00:58:47;;;;;;;42.97;20.87;;;;;;;;;;5015643;28;20084;-84
2023/02/13 01:01:13;;;;;;;51.43;22.43;;;;;;;;;;5016576;28;20030;-85
2023/02/13 01:03:39;;;;;;;49.60;23.30;;;;;;;;;;5016890;28;20160;-85
2023/02/13 01:06:05;;;;;;;55.03;23.30;;;;;;;;;;5014962;28;20041;-83
2023/02/13 01:08:31;;;;;;;47.13;21.50;;;;;;;;;;5014431;28;20405;-85
2023/02/13 01:10:56;;;;;;;51.90;22.93;;;;;;;;;;5016077;28;20081;-85
2023/02/13 01:13:22;;;;;;;50.77;22.57;;;;;;;;;;5013922;28;20034;-84
2023/02/13 01:15:48;;;;;;;46.13;21.97;;;;;;;;;;5014204;28;20109;-82
2023/02/13 01:18:16;;;;;;;46.70;22.23;;;;;;;;;;5014165;28;20036;-83
2023/02/13 01:20:45;;;;;;;51.90;23.33;;;;;;;;;;4998115;28;20042;-82
2023/02/13 01:23:11;;;;;;;45.47;21.60;;;;;;;;;;5014396;28;20036;-84
2023/02/13 01:25:41;;;;;;;42.23;20.50;;;;;;;;;;5015899;28;20014;-82
2023/02/13 01:28:07;;;;;;;45.70;21.10;;;;;;;;;;5014321;28;20088;-82
2023/02/13 01:30:33;;;;;;;43.60;20.30;;;;;;;;;;5014017;28;20113;-84
2023/02/13 01:32:58;;;;;;;39.37;21.87;;;;;;;;;;5014530;28;20056;-81
2023/02/13 01:35:24;;;;;;;41.13;20.93;;;;;;;;;;5013981;28;20026;-83
2023/02/13 01:37:49;;;;;;;45.43;21.27;;;;;;;;;;5014224;28;20022;-83
2023/02/13 01:40:16;;;;;;;46.00;22.37;;;;;;;;;;5033676;28;20060;-83
2023/02/13 01:42:41;;;;;;;46.37;22.70;;;;;;;;;;5033956;28;20040;-84
2023/02/13 01:45:19;;;;;;;47.53;22.60;;;;;;;;;;5034149;28;20033;-84
2023/02/13 01:47:51;;;;;;;45.27;22.07;;;;;;;;;;5034002;28;20579;-85
2023/02/13 01:50:32;;;;;;;39.53;21.40;;;;;;;;;;5034453;28;20096;-84
2023/02/13 01:53:04;;;;;;;45.67;21.20;;;;;;;;;;5035340;28;20524;-85
2023/02/13 01:55:31;;;;;;;36.73;18.87;;;;;;;;;;5035599;28;20020;-85
2023/02/13 01:58:08;;;;;;;35.93;17.20;;;;;;;;;;5033685;28;20009;-82
2023/02/13 02:00:35;;;;;;;30.13;16.27;;;;;;;;;;5035451;28;20033;-83
2023/02/13 02:03:11;;;;;;;38.20;18.27;;;;;;;;;;5034541;28;20037;-84
2023/02/13 02:05:38;;;;;;;35.07;17.67;;;;;;;;;;5034464;28;20034;-83
2023/02/13 02:08:08;;;;;;;32.60;16.57;;;;;;;;;;5033905;28;20021;-83
2023/02/13 02:10:34;;;;;;;30.87;15.43;;;;;;;;;;5033166;28;20455;-83
2023/02/13 02:13:14;;;;;;;34.40;16.33;;;;;;;;;;5032618;28;20048;-84
2023/02/13 02:15:41;;;;;;;38.17;17.83;;;;;;;;;;5033196;28;20036;-79
2023/02/13 02:18:16;;;;;;;39.70;18.40;;;;;;;;;;5032831;28;20029;-85
2023/02/13 02:20:49;;;;;;;38.83;18.67;;;;;;;;;;5034658;28;20033;-85
2023/02/13 02:23:32;;;;;;;42.73;19.50;;;;;;;;;;5034804;28;20402;-84
2023/02/13 02:26:25;;;;;;;43.13;19.17;;;;;;;;;;5033662;28;20025;-82
2023/02/13 02:29:21;;;;;;;38.73;18.97;;;;;;;;;;5033374;28;20033;-85
2023/02/13 02:32:05;;;;;;;38.40;18.83;;;;;;;;;;5033114;28;20029;-84
2023/02/13 02:34:55;;;;;;;41.70;19.67;;;;;;;;;;5032686;28;20037;-84
2023/02/13 02:37:38;;;;;;;34.87;17.33;;;;;;;;;;5034000;28;20033;-81
2023/02/13 02:40:11;;;;;;;38.80;17.03;;;;;;;;;;5029527;28;20060;-83
2023/02/13 02:42:39;;;;;;;32.37;16.77;;;;;;;;;;5014507;28;20033;-84
2023/02/13 02:45:12;;;;;;;37.97;17.87;;;;;;;;;;5012195;28;20030;-83
2023/02/13 02:51:05;;;;;;;40.70;18.27;;;;;;;;;;5015392;28;20049;-83
2023/02/13 02:53:50;;;;;;;49.10;18.97;;;;;;;;;;5014734;28;20038;-83
2023/02/13 02:56:27;;;;;;;38.57;18.40;;;;;;;;;;5013401;28;20552;-84
2023/02/13 03:07:22;;;;;;;33.17;17.23;;;;;;;;;;5014988;28;20111;-84
2023/02/13 03:15:31;;;;;;;38.73;15.83;;;;;;;;;;5014035;28;20052;-84
2023/02/13 03:23:54;;;;;;;35.50;16.00;;;;;;;;;;5013625;28;20036;-81
2023/02/13 03:26:48;;;;;;;28.93;16.07;;;;;;;;;;5014164;28;20040;-81
2023/02/13 03:32:19;;;;;;;36.88;16.50;;;;;;;;;;5013884;28;20044;-85
2023/02/13 03:37:54;;;;;;;25.03;13.77;;;;;;;;;;5014383;28;20032;-84
2023/02/13 03:40:29;;;;;;;34.17;16.08;;;;;;;;;;5012606;28;20057;-84
2023/02/13 03:43:14;;;;;;;28.03;13.93;;;;;;;;;;5013948;28;20042;-81
2023/02/13 03:45:55;;;;;;;35.43;14.67;;;;;;;;;;5012687;28;20322;-84
2023/02/13 03:51:28;;;;;;;31.80;15.10;;;;;;;;;;5014062;28;20041;-83
2023/02/13 03:53:58;;;;;;;29.53;15.47;;;;;;;;;;5014233;28;20064;-84
2023/02/13 03:59:19;;;;;;;30.20;14.77;;;;;;;;;;5017936;28;20548;-84
2023/02/13 04:02:02;;;;;;;36.97;16.50;;;;;;;;;;5015856;28;20438;-84
2023/02/13 04:04:39;;;;;;;37.03;16.00;;;;;;;;;;5015963;28;20038;-85
2023/02/13 04:07:11;;;;;;;33.00;15.23;;;;;;;;;;5017874;28;20477;-84
2023/02/13 04:09:40;;;;;;;37.90;16.20;;;;;;;;;;5016531;28;20044;-83
2023/02/13 04:12:15;;;;;;;30.80;15.97;;;;;;;;;;5025457;28;20009;-82
2023/02/13 04:15:01;;;;;;;33.37;16.40;;;;;;;;;;5036302;28;20017;-84
2023/02/13 04:17:32;;;;;;;32.83;15.70;;;;;;;;;;5037499;28;20053;-84
2023/02/13 04:19:58;;;;;;;38.15;17.00;;;;;;;;;;5037205;28;20086;-84
2023/02/13 04:22:24;;;;;;;35.83;16.40;;;;;;;;;;5035857;28;20038;-82
2023/02/13 04:24:49;;;;;;;30.07;15.20;;;;;;;;;;5036575;28;20093;-83
2023/02/13 04:27:16;;;;;;;35.07;15.17;;;;;;;;;;5037234;28;20052;-83
2023/02/13 04:29:42;;;;;;;30.80;13.93;;;;;;;;;;5036177;28;20385;-82
2023/02/13 04:32:10;;;;;;;28.93;14.47;;;;;;;;;;5037447;28;20033;-84
2023/02/13 04:34:37;;;;;;;30.60;15.00;;;;;;;;;;5022273;28;20025;-83
2023/02/13 04:37:03;;;;;;;34.70;15.33;;;;;;;;;;5040068;28;20053;-83
2023/02/13 04:39:28;;;;;;;33.13;15.37;;;;;;;;;;5037188;28;20056;-82
2023/02/13 04:41:54;;;;;;;30.40;15.23;;;;;;;;;;5038755;28;20029;-82
2023/02/13 04:44:19;;;;;;;32.73;15.80;;;;;;;;;;5038563;28;20065;-82
2023/02/13 04:46:45;;;;;;;29.93;15.53;;;;;;;;;;5036899;28;20108;-83
2023/02/13 04:49:10;;;;;;;33.50;15.03;;;;;;;;;;5037847;28;20470;-80
2023/02/13 04:51:36;;;;;;;30.23;14.50;;;;;;;;;;5035958;28;20091;-83
2023/02/13 04:54:01;;;;;;;28.87;14.17;;;;;;;;;;5035911;28;20056;-84
2023/02/13 04:56:27;;;;;;;32.23;14.47;;;;;;;;;;5035154;28;20414;-83
2023/02/13 04:58:54;;;;;;;35.80;15.23;;;;;;;;;;5035323;28;20025;-85
2023/02/13 05:01:20;;;;;;;34.40;16.33;;;;;;;;;;5033895;28;20615;-83
2023/02/13 05:03:46;;;;;;;30.93;15.60;;;;;;;;;;5035785;28;20078;-85
2023/02/13 05:06:12;;;;;;;35.30;14.20;;;;;;;;;;5034890;28;20133;-84
2023/02/13 05:08:38;;;;;;;33.33;16.37;;;;;;;;;;5048819;28;20025;-82
2023/02/13 05:11:04;;;;;;;31.97;15.50;;;;;;;;;;5034918;28;20029;-83
2023/02/13 05:13:29;;;;;;;32.77;15.93;;;;;;;;;;5036092;28;20024;-83
2023/02/13 05:15:55;;;;;;;37.30;16.07;;;;;;;;;;5036190;28;20366;-83
2023/02/13 05:18:20;;;;;;;27.60;14.40;;;;;;;;;;5035920;28;20237;-83
2023/02/13 05:23:21;;;;;;;32.03;15.17;;;;;;;;;;5035444;28;20021;-85
2023/02/13 05:23:31;;;;;;;33.20;14.77;;;;;;;;;;5035278;28;20029;-84
2023/02/13 05:25:57;;;;;;;31.17;14.87;;;;;;;;;;5035592;28;20044;-84
2023/02/13 05:31:06;;;;;;;32.77;17.60;;;;;;;;;;5036146;28;20036;-83
2023/02/13 05:33:32;;;;;;;32.90;15.77;;;;;;;;;;5035194;28;20462;-84
2023/02/13 05:35:57;;;;;;;36.83;15.97;;;;;;;;;;5029691;28;20053;-84
2023/02/13 05:38:23;;;;;;;36.83;16.10;;;;;;;;;;5024158;28;20038;-83
2023/02/13 05:40:48;;;;;;;36.30;14.77;;;;;;;;;;5015955;28;20057;-85
2023/02/13 05:43:15;;;;;;;33.33;15.03;;;;;;;;;;5020062;28;20029;-84
2023/02/13 05:45:41;;;;;;;31.07;14.97;;;;;;;;;;5025646;28;20073;-82
2023/02/13 05:48:06;;;;;;;28.67;14.97;;;;;;;;;;5024899;28;20060;-83
2023/02/13 05:50:32;;;;;;;35.97;16.53;;;;;;;;;;5016489;28;20068;-83
2023/02/13 05:52:57;;;;;;;41.17;16.17;;;;;;;;;;5022412;28;20431;-80
2023/02/13 05:55:23;;;;;;;36.47;15.93;;;;;;;;;;5019179;28;20033;-82
2023/02/13 05:57:48;;;;;;;34.97;15.63;;;;;;;;;;5023598;28;20153;-81
2023/02/13 06:00:15;;;;;;;31.23;16.10;;;;;;;;;;5021739;28;20030;-82
2023/02/13 06:02:40;;;;;;;37.17;17.13;;;;;;;;;;5024832;28;20033;-82
2023/02/13 06:05:06;;;;;;;29.93;15.47;;;;;;;;;;5020218;28;20032;-82
2023/02/13 06:07:31;;;;;;;38.47;17.57;;;;;;;;;;5021683;28;20029;-85
2023/02/13 06:09:58;;;;;;;24.90;14.03;;;;;;;;;;5023396;28;20473;-81
2023/02/13 06:12:24;;;;;;;33.93;15.83;;;;;;;;;;5025360;28;20065;-83
2023/02/13 06:14:50;;;;;;;32.90;15.07;;;;;;;;;;5021205;28;20364;-82
2023/02/13 06:17:15;;;;;;;33.40;15.83;;;;;;;;;;5016382;28;20059;-81
2023/02/13 06:19:41;;;;;;;35.00;16.27;;;;;;;;;;5013962;28;20029;-87
2023/02/13 06:22:06;;;;;;;34.80;15.17;;;;;;;;;;5022910;28;20032;-83
2023/02/13 06:24:31;;;;;;;40.57;21.20;;;;;;;;;;5023006;28;20041;-84
2023/02/13 06:26:57;;;;;;;40.83;18.63;;;;;;;;;;5025227;28;20075;-82
2023/02/13 06:29:22;;;;;;;35.23;16.90;;;;;;;;;;5016920;28;20037;-83
2023/02/13 06:31:48;;;;;;;32.20;14.60;;;;;;;;;;5021262;28;20040;-87
2023/02/13 06:34:14;;;;;;;28.30;14.57;;;;;;;;;;5016530;28;20069;-85
2023/02/13 06:36:41;;;;;;;30.73;14.43;;;;;;;;;;5020809;28;20060;-81
2023/02/13 06:39:10;;;;;;;28.27;15.27;;;;;;;;;;5023507;28;20049;-82
2023/02/13 06:41:37;;;;;;;35.73;15.27;;;;;;;;;;5020125;28;20021;-85
2023/02/13 06:44:02;;;;;;;32.50;15.27;;;;;;;;;;5017037;28;20103;-81
2023/02/13 06:46:28;;;;;;;40.40;15.33;;;;;;;;;;5043184;28;20025;-83
2023/02/13 06:48:53;;;;;;;29.73;15.17;;;;;;;;;;5031993;28;20116;-81
2023/02/13 06:51:19;;;;;;;35.97;15.30;;;;;;;;;;5017831;28;20033;-84
2023/02/13 06:53:44;;;;;;;32.20;15.70;;;;;;;;;;5030948;28;20436;-83
2023/02/13 06:56:10;;;;;;;33.20;16.63;;;;;;;;;;5033534;28;20060;-86
2023/02/13 06:58:37;;;;;;;30.20;14.73;;;;;;;;;;5032641;28;20302;-85
2023/02/13 07:01:03;;;;;;;37.07;15.03;;;;;;;;;;5029660;28;20032;-85
2023/02/13 07:03:29;;;;;;;31.23;15.27;;;;;;;;;;5017434;28;20033;-83
2023/02/13 07:05:55;;;;;;;36.57;15.27;;;;;;;;;;5008212;28;20034;-83
2023/02/13 07:08:21;;;;;;;34.27;15.97;;;;;;;;;;5026747;28;20017;-84
2023/02/13 07:10:46;;;;;;;31.50;15.10;;;;;;;;;;5030748;28;20029;-87
2023/02/13 07:13:12;;;;;;;37.23;16.13;;;;;;;;;;5021578;28;20028;-82
2023/02/13 07:15:37;;;;;;;33.70;16.30;;;;;;;;;;5028213;28;20033;-85
2023/02/13 07:18:04;;;;;;;36.40;16.03;;;;;;;;;;5028562;28;20030;-83
2023/02/13 07:20:31;;;;;;;33.53;16.23;;;;;;;;;;5035671;28;20025;-84
2023/02/13 07:23:01;;;;;;;30.97;15.40;;;;;;;;;;5026374;28;20494;-85
2023/02/13 07:25:27;;;;;;;35.33;16.73;;;;;;;;;;5021592;28;20026;-87
2023/02/13 07:27:53;;;;;;;30.23;15.73;;;;;;;;;;5044310;28;20532;-83
2023/02/13 07:30:19;;;;;;;29.83;14.20;;;;;;;;;;5029389;28;20045;-79
2023/02/13 07:32:45;;;;;;;29.27;14.57;;;;;;;;;;5025648;28;20080;-85
2023/02/13 07:35:10;;;;;;;27.33;13.70;;;;;;;;;;5035640;28;20028;-82
2023/02/13 07:37:36;;;;;;;26.80;14.70;;;;;;;;;;5031556;28;20044;-83
2023/02/13 07:40:03;;;;;;;28.53;12.83;;;;;;;;;;5031732;28;20129;-83
2023/02/13 07:42:31;;;;;;;30.63;14.50;;;;;;;;;;5047618;28;20580;-82
2023/02/13 07:44:57;;;;;;;27.37;13.43;;;;;;;;;;5031828;28;20034;-84
2023/02/13 07:47:23;;;;;;;28.27;12.67;;;;;;;;;;5034427;28;20064;-82
2023/02/13 07:49:49;;;;;;;31.27;13.67;;;;;;;;;;5035289;28;20017;-80
2023/02/13 07:52:14;;;;;;;36.97;15.13;;;;;;;;;;5030301;28;20029;-84
2023/02/13 07:54:46;;;;;;;25.57;12.93;;;;;;;;;;5026590;28;20049;-85
2023/02/13 07:57:13;;;;;;;33.72;15.43;;;;;;;;;;5025801;28;20186;-84
2023/02/13 07:59:39;;;;;;;29.30;13.37;;;;;;;;;;5032800;28;20032;-82
2023/02/13 08:02:05;;;;;;;31.40;14.20;;;;;;;;;;5024918;28;20033;-82
2023/02/13 08:04:30;;;;;;;31.40;12.53;;;;;;;;;;5044483;28;20038;-84
2023/02/13 08:06:56;;;;;;;33.40;13.63;;;;;;;;;;5035689;28;20068;-82
2023/02/13 08:12:07;;;;;;;33.57;13.80;;;;;;;;;;5021713;28;20091;-81
2023/02/13 08:14:33;;;;;;;25.70;12.33;;;;;;;;;;5019741;28;20112;-82
2023/02/13 08:17:02;;;;;;;25.97;13.57;;;;;;;;;;5020616;28;20176;-82
2023/02/13 08:19:28;;;;;;;25.83;12.30;;;;;;;;;;5023906;28;20057;-80
2023/02/13 08:21:55;;;;;;;27.63;13.63;;;;;;;;;;5025056;28;20617;-81
2023/02/13 08:24:21;;;;;;;27.90;14.47;;;;;;;;;;5030620;28;20030;-83
2023/02/13 08:26:47;;;;;;;35.07;14.10;;;;;;;;;;5013080;28;20026;-83
2023/02/13 08:29:13;;;;;;;34.83;12.90;;;;;;;;;;5025608;28;20057;-88
2023/02/13 08:31:43;;;;;;;27.60;14.17;;;;;;;;;;5032753;28;20049;-84
2023/02/13 08:34:11;;;;;;;25.63;12.40;;;;;;;;;;5028388;28;20093;-82
2023/02/13 08:36:37;;;;;;;27.13;13.23;;;;;;;;;;5027945;28;20038;-82
2023/02/13 08:39:04;;;;;;;23.30;11.57;;;;;;;;;;5026963;28;20441;-82
2023/02/13 08:41:33;;;;;;;27.37;13.23;;;;;;;;;;5032736;28;20041;-83
2023/02/13 08:43:59;;;;;;;32.63;13.23;;;;;;;;;;5035062;28;20033;-83
2023/02/13 08:46:25;;;;;;;27.30;13.23;;;;;;;;;;5028318;28;20026;-82
2023/02/13 08:48:51;;;;;;;22.97;13.03;;;;;;;;;;5036347;28;20017;-80
2023/02/13 08:51:30;;;;;;;42.13;17.17;;;;;;;;;;5032032;28;20129;-83
2023/02/13 08:53:56;;;;;;;26.83;13.50;;;;;;;;;;5040379;28;20017;-83
2023/02/13 08:56:26;;;;;;;30.13;14.13;;;;;;;;;;5046111;28;20030;-84
2023/02/13 08:58:53;;;;;;;23.77;13.07;;;;;;;;;;5032333;28;20030;-83
2023/02/13 09:01:22;;;;;;;25.73;13.43;;;;;;;;;;5031205;28;20103;-81
2023/02/13 09:03:52;;;;;;;27.93;13.57;;;;;;;;;;5036469;28;20005;-86
2023/02/13 09:06:18;;;;;;;28.87;13.63;;;;;;;;;;5031381;28;20022;-84
2023/02/13 09:09:04;;;;;;;25.33;12.33;;;;;;;;;;5056057;28;20260;-85
2023/02/13 09:11:31;;;;;;;35.37;15.40;;;;;;;;;;5023805;28;20085;-84
2023/02/13 09:13:58;;;;;;;25.97;14.37;;;;;;;;;;5027800;28;20521;-83
2023/02/13 09:16:24;;;;;;;33.30;15.07;;;;;;;;;;5029066;28;20398;-84
2023/02/13 09:18:54;;;;;;;32.40;14.83;;;;;;;;;;5022123;28;20014;-82
2023/02/13 09:21:24;;;;;;;31.38;14.57;;;;;;;;;;5023179;28;20025;-85
2023/02/13 09:23:51;;;;;;;27.35;13.25;;;;;;;;;;5023755;28;20025;-84
2023/02/13 09:26:18;;;;;;;31.95;14.30;;;;;;;;;;5008475;28;20085;-84
2023/02/13 09:28:45;;;;;;;28.33;15.15;;;;;;;;;;5016187;28;20053;-78
2023/02/13 09:31:17;;;;;;;29.58;14.35;;;;;;;;;;5019909;28;20526;-83
2023/02/13 09:33:44;;;;;;;26.35;14.25;;;;;;;;;;5021402;28;20034;-87
2023/02/13 09:36:18;;;;;;;32.50;15.57;;;;;;;;;;5033521;28;20449;-82
2023/02/13 09:38:50;;;;;;;23.48;13.13;;;;;;;;;;5028066;28;20041;-83
2023/02/13 09:41:29;;;;;;;41.65;17.40;;;;;;;;;;5020281;28;20132;-81
2023/02/13 09:44:01;;;;;;;32.72;16.42;;;;;;;;;;5043453;28;20708;-84
2023/02/13 09:46:37;;;;;;;42.75;15.20;;;;;;;;;;5027272;28;20127;-87
2023/02/13 09:49:18;;;;;;;27.75;14.00;;;;;;;;;;5023094;28;20036;-81
2023/02/13 09:51:47;;;;;;;35.50;15.23;;;;;;;;;;5026931;28;20143;-79
2023/02/13 09:54:17;;;;;;;27.50;14.25;;;;;;;;;;5020522;28;20081;-82
2023/02/13 09:57:10;;;;;;;34.17;15.38;;;;;;;;;;5025813;28;20060;-81
2023/02/13 09:59:47;;;;;;;33.45;15.93;;;;;;;;;;5022204;28;20104;-83
2023/02/13 10:02:34;;;;;;;55.90;18.45;;;;;;;;;;5024205;28;20049;-80
2023/02/13 10:05:25;;;;;;;29.98;15.45;;;;;;;;;;5027984;28;20026;-82
2023/02/13 10:08:18;;;;;;;39.37;16.27;;;;;;;;;;5021851;28;20113;-81
2023/02/13 10:11:24;;;;;;;36.78;15.65;;;;;;;;;;5026483;28;20040;-83
2023/02/13 10:14:24;;;;;;;42.65;15.20;;;;;;;;;;5024740;28;20122;-82
2023/02/13 10:16:58;;;;;;;35.53;14.63;;;;;;;;;;5022703;28;20543;-81
2023/02/13 10:19:41;;;;;;;30.80;14.82;;;;;;;;;;5022967;28;20034;-85
2023/02/13 10:22:13;;;;;;;45.45;17.33;;;;;;;;;;5022413;28;20021;-81
2023/02/13 10:24:50;;;;;;;29.00;14.18;;;;;;;;;;5015853;28;20121;-83
2023/02/13 10:27:38;;;;;;;27.27;15.90;;;;;;;;;;5014278;28;20520;-80
2023/02/13 10:30:28;;;;;;;38.10;16.48;;;;;;;;;;5008724;28;20825;-82
2023/02/13 10:33:19;;;;;;;41.58;15.98;;;;;;;;;;5019290;28;20099;-79
2023/02/13 10:36:14;;;;;;;28.30;15.75;;;;;;;;;;5018445;28;20120;-81
2023/02/13 10:38:45;;;;;;;25.98;14.52;;;;;;;;;;5020170;28;20028;-81
2023/02/13 10:41:56;;;;;;;27.50;14.73;;;;;;;;;;5020666;28;20045;-80
2023/02/13 10:44:46;;;;;;;32.22;15.57;;;;;;;;;;5009592;28;20381;-83
2023/02/13 10:47:21;;;;;;;44.58;18.30;;;;;;;;;;5013935;28;20038;-78
2023/02/13 10:50:09;;;;;;;42.42;17.20;;;;;;;;;;5028799;28;20025;-78
2023/02/13 10:53:25;;;;;;;42.38;17.02;;;;;;;;;;5019519;28;20454;-81
2023/02/13 10:56:45;;;;;;;34.83;14.68;;;;;;;;;;4967768;28;20073;-81
2023/02/13 10:59:35;;;;;;;45.13;17.27;;;;;;;;;;4915650;29;20158;-82
2023/02/13 11:02:11;;;;;;;45.78;16.10;;;;;;;;;;4946372;28;20038;-81
2023/02/13 11:04:40;;;;;;;30.88;16.05;;;;;;;;;;5009833;28;20037;-82
2023/02/13 11:07:13;;;;;;;43.30;18.90;;;;;;;;;;5022767;28;20030;-82
2023/02/13 11:09:44;;;;;;;41.88;17.45;;;;;;;;;;5022000;28;20033;-81
2023/02/13 11:12:29;;;;;;;47.88;16.25;;;;;;;;;;5022740;28;20106;-82
2023/02/13 11:14:59;;;;;;;30.70;14.13;;;;;;;;;;5019610;28;20033;-80
2023/02/13 11:17:36;;;;;;;28.33;14.43;;;;;;;;;;5019059;28;20034;-81
2023/02/13 11:20:21;;;;;;;27.42;13.70;;;;;;;;;;5013391;28;20608;-80
2023/02/13 11:22:47;;;;;;;40.65;14.68;;;;;;;;;;5017470;28;20029;-81
2023/02/13 11:25:28;;;;;;;26.52;13.90;;;;;;;;;;5019602;28;20544;-79
2023/02/13 11:28:09;;;;;;;28.77;14.40;;;;;;;;;;5021761;28;20069;-82
2023/02/13 11:30:38;;;;;;;32.40;14.10;;;;;;;;;;5017058;28;20033;-81
2023/02/13 11:33:20;;;;;;;24.92;12.93;;;;;;;;;;5031053;28;20026;-81
2023/02/13 11:35:49;;;;;;;34.13;13.63;;;;;;;;;;5020893;28;20026;-81
2023/02/13 11:38:18;;;;;;;38.03;13.95;;;;;;;;;;5019947;28;20288;-83
2023/02/13 11:40:48;;;;;;;29.63;15.02;;;;;;;;;;5022139;28;20501;-81
2023/02/13 11:43:52;;;;;;;36.55;14.27;;;;;;;;;;5004679;28;20836;-79
2023/02/13 11:46:25;;;;;;;27.88;12.07;;;;;;;;;;5014833;28;20544;-80
2023/02/13 11:49:19;;;;;;;47.33;13.20;;;;;;;;;;5019385;28;20414;-82
2023/02/13 11:51:52;;;;;;;22.80;10.43;;;;;;;;;;5021388;28;20052;-83
2023/02/13 11:54:26;;;;;;;21.95;10.27;;;;;;;;;;5024073;28;20034;-81
2023/02/13 11:57:02;;;;;;;13.52;6.90;;;;;;;;;;5016959;28;20486;-83
2023/02/13 11:59:32;;;;;;;15.38;5.57;;;;;;;;;;5030043;28;20343;-83
2023/02/13 12:02:17;;;;;;;12.57;5.80;;;;;;;;;;5025970;28;20374;-80
2023/02/13 12:04:44;;;;;;;17.02;8.32;;;;;;;;;;5023931;28;20033;-81
2023/02/13 12:07:19;;;;;;;18.10;7.38;;;;;;;;;;5023742;28;20045;-82
2023/02/13 12:09:51;;;;;;;16.13;7.57;;;;;;;;;;5028226;28;20085;-82
2023/02/13 12:13:03;;;;;;;17.67;7.60;;;;;;;;;;5010126;28;20044;-85
2023/02/13 12:15:36;;;;;;;15.30;6.25;;;;;;;;;;5001530;28;20421;-83
2023/02/13 12:18:08;;;;;;;17.58;8.27;;;;;;;;;;5018338;28;20497;-83
2023/02/13 12:20:57;;;;;;;15.82;8.27;;;;;;;;;;5024689;28;20064;-83
2023/02/13 12:23:48;;;;;;;16.88;6.78;;;;;;;;;;5020417;28;20483;-79
2023/02/13 12:26:25;;;;;;;18.85;7.95;;;;;;;;;;5026169;28;20038;-80
2023/02/13 12:29:12;;;;;;;16.85;6.90;;;;;;;;;;5021545;28;20075;-83
2023/02/13 12:31:57;;;;;;;24.00;7.75;;;;;;;;;;5027313;28;20017;-81
2023/02/13 12:34:52;;;;;;;18.30;7.15;;;;;;;;;;5021524;28;20083;-80
2023/02/13 12:37:36;;;;;;;22.15;6.70;;;;;;;;;;5026620;28;20393;-80
2023/02/13 12:40:43;;;;;;;15.77;6.35;;;;;;;;;;5030288;28;20134;-80
2023/02/13 12:43:48;;;;;;;14.18;5.90;;;;;;;;;;5030433;28;20107;-82
2023/02/13 12:46:37;;;;;;;15.98;5.47;;;;;;;;;;5031435;28;20140;-79
2023/02/13 12:49:12;;;;;;;12.77;6.20;;;;;;;;;;5027210;28;20040;-80
2023/02/13 12:52:04;;;;;;;7.38;4.65;;;;;;;;;;5027073;28;20064;-80
2023/02/13 12:55:17;;;;;;;13.75;6.28;;;;;;;;;;5013398;28;21715;-81
2023/02/13 12:58:11;;;;;;;22.00;5.82;;;;;;;;;;5023631;28;20038;-82
2023/02/13 13:01:03;;;;;;;6.88;3.95;;;;;;;;;;5026166;28;20037;-80
2023/02/13 13:04:20;;;;;;;6.60;4.72;;;;;;;;;;5032338;28;20029;-81
2023/02/13 13:07:23;;;;;;;10.77;4.45;;;;;;;;;;5034367;28;20037;-86
2023/02/13 13:10:19;;;;;;;9.30;4.38;;;;;;;;;;5018730;28;20028;-84
2023/02/13 13:13:28;;;;;;;6.65;4.53;;;;;;;;;;5022161;28;20413;-83
2023/02/13 13:16:17;;;;;;;13.65;4.90;;;;;;;;;;5035602;28;20488;-80
2023/02/13 13:19:05;;;;;;;6.93;4.22;;;;;;;;;;5023233;28;20041;-84
2023/02/13 13:21:55;;;;;;;5.28;4.40;;;;;;;;;;5029334;28;20044;-83
2023/02/13 13:24:33;;;;;;;14.02;5.00;;;;;;;;;;5030663;28;20030;-84
2023/02/13 13:27:02;;;;;;;11.13;6.07;;;;;;;;;;5033589;28;20022;-82
2023/02/13 13:29:50;;;;;;;5.15;3.70;;;;;;;;;;5031186;28;20029;-82
2023/02/13 13:32:20;;;;;;;8.07;4.13;;;;;;;;;;5036625;28;20033;-84
2023/02/13 13:34:46;;;;;;;16.05;6.30;;;;;;;;;;5033866;28;20029;-83
2023/02/13 13:37:31;;;;;;;6.90;4.72;;;;;;;;;;5034315;28;20171;-83
2023/02/13 13:40:04;;;;;;;9.48;4.70;;;;;;;;;;5028263;28;20118;-85
2023/02/13 13:42:39;;;;;;;5.82;4.15;;;;;;;;;;5029115;28;20128;-85
2023/02/13 13:45:30;;;;;;;6.38;3.90;;;;;;;;;;5037074;28;20088;-83
2023/02/13 13:48:07;;;;;;;9.30;4.50;;;;;;;;;;5031488;28;20092;-84
2023/02/13 13:50:39;;;;;;;6.10;3.67;;;;;;;;;;5046010;28;20657;-84
2023/02/13 13:53:18;;;;;;;7.78;4.43;;;;;;;;;;5027861;28;20073;-84
2023/02/13 13:55:49;;;;;;;7.57;4.22;;;;;;;;;;5037430;28;20049;-85
2023/02/13 13:58:39;;;;;;;5.38;3.28;;;;;;;;;;5030219;28;20037;-85
2023/02/13 14:01:19;;;;;;;3.83;3.30;;;;;;;;;;5027194;28;20081;-82
2023/02/13 14:03:47;;;;;;;5.40;3.80;;;;;;;;;;5033792;28;20350;-85
2023/02/13 14:06:16;;;;;;;10.73;5.65;;;;;;;;;;5026071;28;20033;-84
2023/02/13 14:08:45;;;;;;;5.65;4.13;;;;;;;;;;5037378;28;20450;-83
2023/02/13 14:11:43;;;;;;;14.85;4.35;;;;;;;;;;5028091;28;20448;-85
2023/02/13 14:14:27;;;;;;;4.78;3.38;;;;;;;;;;5033890;28;20072;-83
2023/02/13 14:16:57;;;;;;;5.15;3.60;;;;;;;;;;5028401;28;20036;-84
2023/02/13 14:19:38;;;;;;;5.13;3.08;;;;;;;;;;5013728;28;20025;-82
2023/02/13 14:22:26;;;;;;;7.88;3.92;;;;;;;;;;5031356;28;20049;-83
2023/02/13 14:24:56;;;;;;;5.97;3.58;;;;;;;;;;5036241;28;20048;-84
2023/02/13 14:27:27;;;;;;;9.27;3.78;;;;;;;;;;5037024;28;20025;-83
2023/02/13 14:29:54;;;;;;;6.43;3.97;;;;;;;;;;5028404;28;20029;-81
2023/02/13 14:32:33;;;;;;;5.53;3.85;;;;;;;;;;5032826;28;20029;-85
2023/02/13 14:35:13;;;;;;;5.25;3.72;;;;;;;;;;5025276;28;20041;-83
2023/02/13 14:37:49;;;;;;;10.25;3.75;;;;;;;;;;5029670;28;20048;-81
2023/02/13 14:40:16;;;;;;;10.27;4.28;;;;;;;;;;5018360;28;20045;-81
2023/02/13 14:42:46;;;;;;;5.05;3.80;;;;;;;;;;5027293;28;20041;-81
2023/02/13 14:45:18;;;;;;;9.75;4.10;;;;;;;;;;5037103;28;20074;-84
2023/02/13 14:47:52;;;;;;;10.80;4.22;;;;;;;;;;5036705;28;20081;-84
2023/02/13 14:50:31;;;;;;;5.10;3.78;;;;;;;;;;5030807;28;20057;-81
2023/02/13 14:52:59;;;;;;;10.95;4.22;;;;;;;;;;5028310;28;20029;-82
2023/02/13 14:55:41;;;;;;;6.00;3.67;;;;;;;;;;5029461;28;20515;-80
2023/02/13 14:58:14;;;;;;;5.60;4.05;;;;;;;;;;5029179;28;20075;-83
2023/02/13 15:00:49;;;;;;;7.55;4.00;;;;;;;;;;5036099;28;20048;-83
2023/02/13 15:03:27;;;;;;;9.13;4.20;;;;;;;;;;5022581;28;20687;-81
2023/02/13 15:05:56;;;;;;;9.20;4.60;;;;;;;;;;5022796;28;20801;-81
2023/02/13 15:08:26;;;;;;;5.93;3.97;;;;;;;;;;5036653;28;20358;-86
2023/02/13 15:10:54;;;;;;;5.22;3.92;;;;;;;;;;5034968;28;20033;-86
2023/02/13 15:13:30;;;;;;;6.43;4.53;;;;;;;;;;5026835;28;20038;-84
2023/02/13 15:16:08;;;;;;;6.68;4.32;;;;;;;;;;5019148;28;20018;-81
2023/02/13 15:18:39;;;;;;;7.97;5.10;;;;;;;;;;5028408;28;20034;-84
2023/02/13 15:21:05;;;;;;;6.25;4.63;;;;;;;;;;5030679;28;20541;-85
2023/02/13 15:23:33;;;;;;;6.43;4.30;;;;;;;;;;5041318;28;20052;-86
2023/02/13 15:26:05;;;;;;;4.70;3.97;;;;;;;;;;5044312;28;20037;-87
2023/02/13 15:28:32;;;;;;;6.28;4.80;;;;;;;;;;5041223;28;20493;-82
2023/02/13 15:31:20;;;;;;;5.75;4.18;;;;;;;;;;5028997;28;20056;-84
2023/02/13 15:33:48;;;;;;;5.72;4.85;;;;;;;;;;5031187;28;20041;-82
2023/02/13 15:36:20;;;;;;;6.97;4.90;;;;;;;;;;5033603;28;20028;-83